createdAt,value
2019-01-03T00:00:07.775Z,1032.57
2019-01-03T00:01:07.737Z,1032.60
2019-01-03T00:02:07.700Z,1032.57
2019-01-03T00:03:07.663Z,1032.59
2019-01-03T00:04:07.624Z,1032.60
2019-01-03T00:05:07.586Z,1032.57
2019-01-03T00:06:07.549Z,1032.54
2019-01-03T00:07:07.511Z,1032.52
2019-01-03T00:08:07.472Z,1032.51
2019-01-03T00:09:07.435Z,1032.51
2019-01-03T00:10:07.398Z,1032.53
2019-01-03T00:11:07.360Z,1032.55
2019-01-03T00:12:07.322Z,1032.53
2019-01-03T00:13:07.283Z,1032.51
2019-01-03T00:14:07.246Z,1032.59
2019-01-03T00:15:07.210Z,1032.54
2019-01-03T00:16:07.171Z,1032.54
2019-01-03T00:17:07.133Z,1032.49
2019-01-03T00:18:07.102Z,1032.60
2019-01-03T00:19:07.056Z,1032.57
2019-01-03T00:20:07.019Z,1032.57
2019-01-03T00:21:06.980Z,1032.53
2019-01-03T00:22:06.942Z,1032.59
2019-01-03T00:23:06.906Z,1032.58
2019-01-03T00:24:06.867Z,1032.58
2019-01-03T00:25:06.828Z,1032.63
2019-01-03T00:26:06.791Z,1032.61
2019-01-03T00:27:06.753Z,1032.63
2019-01-03T00:28:06.726Z,1032.62
2019-01-03T00:29:06.678Z,1032.67
2019-01-03T00:30:06.640Z,1032.68
2019-01-03T00:31:06.602Z,1032.62
2019-01-03T00:32:06.563Z,1032.68
2019-01-03T00:33:06.526Z,1032.66
2019-01-03T00:34:06.488Z,1032.67
2019-01-03T00:35:06.450Z,1032.68
2019-01-03T00:36:06.411Z,1032.70
2019-01-03T00:37:06.375Z,1032.67
2019-01-03T00:38:06.338Z,1032.69
2019-01-03T00:39:06.299Z,1032.63
2019-01-03T00:40:06.259Z,1032.68
2019-01-03T00:41:06.222Z,1032.64
2019-01-03T00:42:06.186Z,1032.66
2019-01-03T00:43:06.147Z,1032.62
2019-01-03T00:44:06.108Z,1032.68
2019-01-03T00:45:06.073Z,1032.66
2019-01-03T00:46:06.033Z,1032.68
2019-01-03T00:47:05.998Z,1032.70
2019-01-03T00:48:05.960Z,1032.70
2019-01-03T00:49:05.923Z,1032.69
2019-01-03T00:50:05.881Z,1032.67
2019-01-03T00:51:05.845Z,1032.71
2019-01-03T00:52:05.805Z,1032.67
2019-01-03T00:53:05.766Z,1032.66
2019-01-03T00:54:05.730Z,1032.68
2019-01-03T00:55:05.691Z,1032.66
2019-01-03T00:56:05.652Z,1032.62
2019-01-03T00:57:05.615Z,1032.70
2019-01-03T00:58:05.579Z,1032.67
2019-01-03T00:59:05.540Z,1032.69
2019-01-03T01:00:05.501Z,1032.66
2019-01-03T01:01:05.463Z,1032.71
2019-01-03T01:02:05.427Z,1032.72
2019-01-03T01:03:05.388Z,1032.69
2019-01-03T01:04:05.350Z,1032.76
2019-01-03T01:05:05.312Z,1032.71
2019-01-03T01:06:05.274Z,1032.71
2019-01-03T01:07:05.238Z,1032.75
2019-01-03T01:08:05.202Z,1032.81
2019-01-03T01:09:05.161Z,1032.79
2019-01-03T01:10:05.123Z,1032.74
2019-01-03T01:11:05.140Z,1032.77
2019-01-03T01:12:05.046Z,1032.78
2019-01-03T01:13:05.009Z,1032.75
2019-01-03T01:14:04.971Z,1032.70
2019-01-03T01:15:04.935Z,1032.70
2019-01-03T01:16:04.895Z,1032.73
2019-01-03T01:17:04.856Z,1032.75
2019-01-03T01:18:04.817Z,1032.75
2019-01-03T01:19:04.780Z,1032.83
2019-01-03T01:20:04.744Z,1032.80
2019-01-03T01:21:04.707Z,1032.83
2019-01-03T01:22:04.666Z,1032.83
2019-01-03T01:23:04.630Z,1032.86
2019-01-03T01:24:04.591Z,1032.83
2019-01-03T01:25:04.552Z,1032.93
2019-01-03T01:26:04.515Z,1032.96
2019-01-03T01:27:04.477Z,1032.96
2019-01-03T01:28:04.439Z,1032.95
2019-01-03T01:29:04.399Z,1033.01
2019-01-03T01:30:04.362Z,1033.04
2019-01-03T01:31:04.325Z,1033.00
2019-01-03T01:32:04.285Z,1033.01
2019-01-03T01:33:04.248Z,1033.05
2019-01-03T01:34:04.210Z,1033.09
2019-01-03T01:35:04.172Z,1033.08
2019-01-03T01:36:04.137Z,1033.08
2019-01-03T01:37:04.096Z,1033.07
2019-01-03T01:38:04.061Z,1033.06
2019-01-03T01:39:04.021Z,1033.07
2019-01-03T01:40:03.982Z,1033.04
2019-01-03T01:41:03.943Z,1033.00
2019-01-03T01:42:03.905Z,1033.03
2019-01-03T01:43:03.872Z,1033.04
2019-01-03T01:44:03.827Z,1033.05
2019-01-03T01:45:03.793Z,1033.06
2019-01-03T01:46:03.753Z,1033.03
2019-01-03T01:47:03.713Z,1033.08
2019-01-03T01:48:03.678Z,1033.09
2019-01-03T01:49:03.637Z,1033.07
2019-01-03T01:50:03.598Z,1033.05
2019-01-03T01:51:03.562Z,1033.11
2019-01-03T01:52:03.521Z,1033.13
2019-01-03T01:53:03.484Z,1033.10
2019-01-03T01:54:03.445Z,1033.12
2019-01-03T01:55:03.407Z,1033.08
2019-01-03T01:56:03.370Z,1033.08
2019-01-03T01:57:03.331Z,1033.11
2019-01-03T01:58:03.293Z,1033.08
2019-01-03T01:59:03.256Z,1033.06
2019-01-03T02:00:03.215Z,1033.03
2019-01-03T02:01:03.177Z,1033.05
2019-01-03T02:02:03.139Z,1033.07
2019-01-03T02:03:03.102Z,1033.02
2019-01-03T02:04:03.060Z,1032.98
2019-01-03T02:05:03.023Z,1033.04
2019-01-03T02:06:02.986Z,1033.07
2019-01-03T02:07:02.946Z,1033.06
2019-01-03T02:08:02.907Z,1033.05
2019-01-03T02:09:02.873Z,1033.12
2019-01-03T02:10:02.831Z,1033.13
2019-01-03T02:11:02.793Z,1033.12
2019-01-03T02:12:02.753Z,1033.15
2019-01-03T02:13:02.717Z,1033.06
2019-01-03T02:14:02.678Z,1033.03
2019-01-03T02:15:02.639Z,1032.96
2019-01-03T02:16:02.600Z,1032.98
2019-01-03T02:17:02.562Z,1032.97
2019-01-03T02:18:02.523Z,1032.94
2019-01-03T02:19:02.483Z,1032.90
2019-01-03T02:20:02.445Z,1032.81
2019-01-03T02:21:02.408Z,1032.85
2019-01-03T02:22:02.368Z,1032.87
2019-01-03T02:23:02.330Z,1032.91
2019-01-03T02:24:02.290Z,1032.96
2019-01-03T02:25:02.252Z,1032.98
2019-01-03T02:26:02.213Z,1032.96
2019-01-03T02:27:02.174Z,1032.97
2019-01-03T02:28:02.136Z,1033.01
2019-01-03T02:29:02.099Z,1033.00
2019-01-03T02:30:02.075Z,1033.00
2019-01-03T02:31:02.020Z,1032.97
2019-01-03T02:32:01.983Z,1032.96
2019-01-03T02:33:01.943Z,1032.96
2019-01-03T02:34:01.904Z,1032.95
2019-01-03T02:35:01.889Z,1032.95
2019-01-03T02:36:01.825Z,1033.05
2019-01-03T02:37:01.794Z,1033.06
2019-01-03T02:38:01.748Z,1033.06
2019-01-03T02:39:01.713Z,1033.05
2019-01-03T02:40:01.672Z,1033.04
2019-01-03T02:41:01.637Z,1033.02
2019-01-03T02:42:01.595Z,1033.07
2019-01-03T02:43:01.554Z,1033.02
2019-01-03T02:44:01.516Z,1033.02
2019-01-03T02:45:01.477Z,1033.02
2019-01-03T02:46:01.441Z,1033.00
2019-01-03T02:47:01.400Z,1032.99
2019-01-03T02:48:01.369Z,1032.99
2019-01-03T02:49:01.323Z,1032.97
2019-01-03T02:50:01.286Z,1032.97
2019-01-03T02:51:01.244Z,1032.99
2019-01-03T02:52:01.207Z,1033.02
2019-01-03T02:53:01.168Z,1032.98
2019-01-03T02:54:01.133Z,1032.97
2019-01-03T02:55:01.090Z,1032.92
2019-01-03T02:56:01.053Z,1032.90
2019-01-03T02:57:01.012Z,1032.89
2019-01-03T02:58:00.975Z,1032.85
2019-01-03T02:59:00.936Z,1032.93
2019-01-03T03:00:00.896Z,1032.91
2019-01-03T03:01:00.857Z,1032.88
2019-01-03T03:02:00.819Z,1032.91
2019-01-03T03:03:00.779Z,1032.92
2019-01-03T03:04:00.741Z,1032.92
2019-01-03T03:05:00.701Z,1032.95
2019-01-03T03:06:00.663Z,1032.97
2019-01-03T03:07:00.630Z,1033.01
2019-01-03T03:08:00.586Z,1032.95
2019-01-03T03:09:00.546Z,1032.95
2019-01-03T03:10:00.535Z,1032.97
2019-01-03T03:11:00.470Z,1032.97
2019-01-03T03:12:00.431Z,1032.97
2019-01-03T03:13:00.392Z,1032.96
2019-01-03T03:14:00.355Z,1032.94
2019-01-03T03:15:00.316Z,1032.96
2019-01-03T03:16:00.280Z,1032.90
2019-01-03T03:17:00.251Z,1032.95
2019-01-03T03:18:00.198Z,1032.95
2019-01-03T03:19:00.162Z,1032.93
2019-01-03T03:20:00.311Z,1033.00
2019-01-03T03:21:00.083Z,1032.97
2019-01-03T03:22:00.043Z,1033.00
2019-01-03T03:23:00.006Z,1033.00
2019-01-03T03:23:59.970Z,1033.01
2019-01-03T03:24:59.929Z,1033.07
2019-01-03T03:25:59.892Z,1033.09
2019-01-03T03:26:59.855Z,1033.09
2019-01-03T03:27:59.814Z,1033.02
2019-01-03T03:28:59.773Z,1033.08
2019-01-03T03:29:59.735Z,1033.01
2019-01-03T03:30:59.699Z,1033.03
2019-01-03T03:31:59.658Z,1033.06
2019-01-03T03:32:59.620Z,1033.07
2019-01-03T03:33:59.581Z,1033.09
2019-01-03T03:34:59.541Z,1033.08
2019-01-03T03:35:59.503Z,1033.05
2019-01-03T03:36:59.464Z,1033.01
2019-01-03T03:37:59.426Z,1032.95
2019-01-03T03:38:59.387Z,1032.98
2019-01-03T03:39:59.348Z,1032.97
2019-01-03T03:40:59.310Z,1032.97
2019-01-03T03:41:59.270Z,1032.96
2019-01-03T03:42:59.236Z,1032.95
2019-01-03T03:43:59.193Z,1032.98
2019-01-03T03:44:59.155Z,1032.97
2019-01-03T03:45:59.116Z,1032.99
2019-01-03T03:46:59.079Z,1032.99
2019-01-03T03:47:59.040Z,1032.95
2019-01-03T03:48:59.000Z,1032.91
2019-01-03T03:49:58.961Z,1032.93
2019-01-03T03:50:58.925Z,1032.93
2019-01-03T03:51:58.884Z,1032.95
2019-01-03T03:52:58.843Z,1032.93
2019-01-03T03:53:58.807Z,1032.88
2019-01-03T03:54:58.767Z,1032.90
2019-01-03T03:55:58.730Z,1032.87
2019-01-03T03:56:58.691Z,1032.88
2019-01-03T03:57:58.654Z,1032.86
2019-01-03T03:58:58.612Z,1032.88
2019-01-03T03:59:58.573Z,1032.88
2019-01-03T04:00:58.536Z,1032.88
2019-01-03T04:01:58.496Z,1032.90
2019-01-03T04:02:58.457Z,1032.97
2019-01-03T04:03:58.418Z,1032.93
2019-01-03T04:04:58.383Z,1032.91
2019-01-03T04:05:58.342Z,1032.94
2019-01-03T04:06:58.302Z,1032.90
2019-01-03T04:07:58.263Z,1032.95
2019-01-03T04:08:58.225Z,1032.91
2019-01-03T04:09:58.187Z,1032.94
2019-01-03T04:10:58.148Z,1032.94
2019-01-03T04:11:58.109Z,1032.95
2019-01-03T04:12:58.070Z,1032.91
2019-01-03T04:13:58.031Z,1032.92
2019-01-03T04:14:57.996Z,1032.93
2019-01-03T04:15:57.952Z,1032.86
2019-01-03T04:16:57.913Z,1032.89
2019-01-03T04:17:57.885Z,1032.87
2019-01-03T04:18:57.836Z,1032.88
2019-01-03T04:19:57.798Z,1032.88
2019-01-03T04:20:57.758Z,1032.86
2019-01-03T04:21:57.726Z,1032.90
2019-01-03T04:22:57.681Z,1032.89
2019-01-03T04:23:57.643Z,1032.90
2019-01-03T04:24:57.604Z,1032.94
2019-01-03T04:25:57.564Z,1032.87
2019-01-03T04:26:57.526Z,1032.89
2019-01-03T04:27:57.485Z,1032.86
2019-01-03T04:28:57.449Z,1032.89
2019-01-03T04:29:57.412Z,1032.85
2019-01-03T04:30:57.371Z,1032.87
2019-01-03T04:31:57.332Z,1032.87
2019-01-03T04:32:57.293Z,1032.88
2019-01-03T04:33:57.254Z,1032.85
2019-01-03T04:34:57.223Z,1032.86
2019-01-03T04:35:57.176Z,1032.86
2019-01-03T04:36:57.140Z,1032.89
2019-01-03T04:37:57.100Z,1032.88
2019-01-03T04:38:57.062Z,1032.88
2019-01-03T04:39:57.022Z,1032.86
2019-01-03T04:40:56.987Z,1032.90
2019-01-03T04:41:56.946Z,1032.85
2019-01-03T04:42:56.905Z,1032.86
2019-01-03T04:43:56.867Z,1032.86
2019-01-03T04:44:56.828Z,1032.87
2019-01-03T04:45:56.789Z,1032.91
2019-01-03T04:46:56.751Z,1032.90
2019-01-03T04:47:56.712Z,1032.91
2019-01-03T04:48:56.684Z,1032.90
2019-01-03T04:49:56.633Z,1032.92
2019-01-03T04:50:56.597Z,1032.92
2019-01-03T04:51:56.557Z,1032.88
2019-01-03T04:52:56.523Z,1032.89
2019-01-03T04:53:56.504Z,1032.90
2019-01-03T04:54:56.440Z,1032.86
2019-01-03T04:55:56.401Z,1032.88
2019-01-03T04:56:56.362Z,1032.91
2019-01-03T04:57:56.323Z,1032.89
2019-01-03T04:58:56.289Z,1032.90
2019-01-03T04:59:56.249Z,1032.87
2019-01-03T05:00:56.208Z,1032.89
2019-01-03T05:01:56.169Z,1032.89
2019-01-03T05:02:56.131Z,1032.87
2019-01-03T05:03:56.094Z,1032.90
2019-01-03T05:04:56.058Z,1032.88
2019-01-03T05:05:56.014Z,1032.86
2019-01-03T05:06:55.975Z,1032.83
2019-01-03T05:07:57.455Z,1032.81
2019-01-03T05:08:55.898Z,1032.78
2019-01-03T05:09:55.862Z,1032.83
2019-01-03T05:10:55.825Z,1032.79
2019-01-03T05:11:55.781Z,1032.79
2019-01-03T05:12:55.742Z,1032.80
2019-01-03T05:13:55.804Z,1032.77
2019-01-03T05:14:55.665Z,1032.77
2019-01-03T05:15:55.626Z,1032.71
2019-01-03T05:16:55.588Z,1032.66
2019-01-03T05:17:55.548Z,1032.68
2019-01-03T05:18:55.509Z,1032.69
2019-01-03T05:19:55.475Z,1032.70
2019-01-03T05:20:55.431Z,1032.75
2019-01-03T05:21:55.393Z,1032.78
2019-01-03T05:22:55.355Z,1032.78
2019-01-03T05:23:57.384Z,1032.78
2019-01-03T05:24:55.276Z,1032.77
2019-01-03T05:25:55.236Z,1032.78
2019-01-03T05:26:55.198Z,1032.77
2019-01-03T05:27:55.159Z,1032.77
2019-01-03T05:28:55.120Z,1032.74
2019-01-03T05:29:55.082Z,1032.74
2019-01-03T05:30:55.042Z,1032.71
2019-01-03T05:31:55.004Z,1032.72
2019-01-03T05:32:54.968Z,1032.69
2019-01-03T05:33:54.929Z,1032.71
2019-01-03T05:34:54.986Z,1032.67
2019-01-03T05:35:54.847Z,1032.67
2019-01-03T05:36:54.812Z,1032.68
2019-01-03T05:37:54.776Z,1032.67
2019-01-03T05:38:54.731Z,1032.66
2019-01-03T05:39:54.690Z,1032.67
2019-01-03T05:40:54.652Z,1032.64
2019-01-03T05:41:54.613Z,1032.62
2019-01-03T05:42:54.575Z,1032.62
2019-01-03T05:43:54.536Z,1032.60
2019-01-03T05:44:54.498Z,1032.62
2019-01-03T05:45:54.460Z,1032.64
2019-01-03T05:46:54.420Z,1032.67
2019-01-03T05:47:54.380Z,1032.61
2019-01-03T05:48:54.339Z,1032.62
2019-01-03T05:49:54.301Z,1032.61
2019-01-03T05:50:54.262Z,1032.65
2019-01-03T05:51:54.222Z,1032.62
2019-01-03T05:52:54.183Z,1032.66
2019-01-03T05:53:54.145Z,1032.69
2019-01-03T05:54:54.108Z,1032.69
2019-01-03T05:55:54.066Z,1032.68
2019-01-03T05:56:54.025Z,1032.63
2019-01-03T05:57:53.986Z,1032.63
2019-01-03T05:58:53.949Z,1032.65
2019-01-03T05:59:53.910Z,1032.66
2019-01-03T06:00:53.871Z,1032.63
2019-01-03T06:01:53.832Z,1032.63
2019-01-03T06:02:53.793Z,1032.67
2019-01-03T06:03:53.752Z,1032.63
2019-01-03T06:04:53.713Z,1032.67
2019-01-03T06:05:53.674Z,1032.68
2019-01-03T06:06:53.636Z,1032.70
2019-01-03T06:07:53.642Z,1032.73
2019-01-03T06:08:53.558Z,1032.70
2019-01-03T06:09:53.519Z,1032.66
2019-01-03T06:10:53.479Z,1032.70
2019-01-03T06:11:53.440Z,1032.70
2019-01-03T06:12:53.402Z,1032.64
2019-01-03T06:13:53.363Z,1032.69
2019-01-03T06:14:53.323Z,1032.63
2019-01-03T06:15:53.283Z,1032.67
2019-01-03T06:16:53.246Z,1032.68
2019-01-03T06:17:53.207Z,1032.66
2019-01-03T06:18:53.169Z,1032.67
2019-01-03T06:19:53.127Z,1032.68
2019-01-03T06:20:53.088Z,1032.68
2019-01-03T06:21:53.052Z,1032.73
2019-01-03T06:22:53.015Z,1032.72
2019-01-03T06:23:52.971Z,1032.70
2019-01-03T06:24:52.932Z,1032.72
2019-01-03T06:25:52.894Z,1032.71
2019-01-03T06:26:52.855Z,1032.70
2019-01-03T06:27:52.817Z,1032.71
2019-01-03T06:28:52.777Z,1032.69
2019-01-03T06:29:52.738Z,1032.68
2019-01-03T06:30:52.701Z,1032.66
2019-01-03T06:31:52.660Z,1032.72
2019-01-03T06:32:52.620Z,1032.73
2019-01-03T06:33:52.584Z,1032.70
2019-01-03T06:34:52.546Z,1032.73
2019-01-03T06:35:53.766Z,1032.71
2019-01-03T06:36:52.464Z,1032.74
2019-01-03T06:37:52.425Z,1032.67
2019-01-03T06:38:52.388Z,1032.70
2019-01-03T06:39:52.347Z,1032.71
2019-01-03T06:40:52.308Z,1032.69
2019-01-03T06:41:52.272Z,1032.73
2019-01-03T06:42:52.231Z,1032.74
2019-01-03T06:43:52.191Z,1032.74
2019-01-03T06:44:52.152Z,1032.77
2019-01-03T06:45:52.113Z,1032.70
2019-01-03T06:46:52.075Z,1032.76
2019-01-03T06:47:52.036Z,1032.70
2019-01-03T06:48:51.999Z,1032.77
2019-01-03T06:49:51.957Z,1032.76
2019-01-03T06:50:51.918Z,1032.82
2019-01-03T06:51:51.883Z,1032.83
2019-01-03T06:52:51.844Z,1032.80
2019-01-03T06:53:51.807Z,1032.87
2019-01-03T06:54:51.763Z,1032.88
2019-01-03T06:55:51.723Z,1032.93
2019-01-03T06:56:51.684Z,1032.93
2019-01-03T06:57:51.647Z,1032.92
2019-01-03T06:58:51.607Z,1032.92
2019-01-03T06:59:51.568Z,1032.95
2019-01-03T07:00:51.529Z,1032.99
2019-01-03T07:01:51.491Z,1033.03
2019-01-03T07:02:51.452Z,1033.03
2019-01-03T07:03:51.411Z,1033.03
2019-01-03T07:04:51.375Z,1032.99
2019-01-03T07:05:51.336Z,1032.97
2019-01-03T07:06:51.296Z,1032.99
2019-01-03T07:07:51.255Z,1033.03
2019-01-03T07:08:51.217Z,1032.99
2019-01-03T07:09:51.179Z,1033.03
2019-01-03T07:10:51.140Z,1033.02
2019-01-03T07:11:51.101Z,1033.09
2019-01-03T07:12:51.066Z,1033.10
2019-01-03T07:13:51.025Z,1033.11
2019-01-03T07:14:50.984Z,1033.12
2019-01-03T07:15:50.944Z,1033.11
2019-01-03T07:16:50.904Z,1033.13
2019-01-03T07:17:50.867Z,1033.17
2019-01-03T07:18:50.829Z,1033.21
2019-01-03T07:19:50.791Z,1033.20
2019-01-03T07:20:50.753Z,1033.17
2019-01-03T07:21:50.712Z,1033.19
2019-01-03T07:22:50.672Z,1033.20
2019-01-03T07:23:50.634Z,1033.22
2019-01-03T07:24:50.595Z,1033.22
2019-01-03T07:25:50.555Z,1033.23
2019-01-03T07:26:50.546Z,1033.28
2019-01-03T07:27:50.477Z,1033.29
2019-01-03T07:28:50.439Z,1033.34
2019-01-03T07:29:50.400Z,1033.36
2019-01-03T07:30:50.361Z,1033.37
2019-01-03T07:31:50.322Z,1033.33
2019-01-03T07:32:50.284Z,1033.41
2019-01-03T07:33:50.244Z,1033.41
2019-01-03T07:34:50.207Z,1033.45
2019-01-03T07:35:50.166Z,1033.44
2019-01-03T07:36:50.127Z,1033.47
2019-01-03T07:37:50.089Z,1033.47
2019-01-03T07:38:50.049Z,1033.46
2019-01-03T07:39:50.009Z,1033.50
2019-01-03T07:40:49.971Z,1033.48
2019-01-03T07:41:49.933Z,1033.51
2019-01-03T07:42:49.893Z,1033.56
2019-01-03T07:43:49.854Z,1033.56
2019-01-03T07:44:49.815Z,1033.57
2019-01-03T07:45:49.777Z,1033.55
2019-01-03T07:46:49.738Z,1033.54
2019-01-03T07:47:49.699Z,1033.52
2019-01-03T07:48:49.665Z,1033.50
2019-01-03T07:49:49.621Z,1033.51
2019-01-03T07:50:49.584Z,1033.57
2019-01-03T07:51:49.544Z,1033.58
2019-01-03T07:52:49.504Z,1033.59
2019-01-03T07:53:49.466Z,1033.54
2019-01-03T07:54:49.428Z,1033.61
2019-01-03T07:55:49.388Z,1033.58
2019-01-03T07:56:49.351Z,1033.60
2019-01-03T07:57:49.320Z,1033.58
2019-01-03T07:58:49.272Z,1033.63
2019-01-03T07:59:49.233Z,1033.61
2019-01-03T08:00:49.199Z,1033.59
2019-01-03T08:01:49.156Z,1033.63
2019-01-03T08:02:49.119Z,1033.60
2019-01-03T08:03:49.079Z,1033.62
2019-01-03T08:04:49.042Z,1033.63
2019-01-03T08:05:49.001Z,1033.62
2019-01-03T08:06:48.964Z,1033.68
2019-01-03T08:07:48.925Z,1033.65
2019-01-03T08:08:48.886Z,1033.67
2019-01-03T08:09:48.848Z,1033.63
2019-01-03T08:10:48.822Z,1033.61
2019-01-03T08:11:48.822Z,1033.59
2019-01-03T08:12:48.735Z,1033.52
2019-01-03T08:13:48.694Z,1033.55
2019-01-03T08:14:48.657Z,1033.55
2019-01-03T08:15:48.617Z,1033.55
2019-01-03T08:16:48.580Z,1033.52
2019-01-03T08:17:48.542Z,1033.47
2019-01-03T08:18:48.504Z,1033.47
2019-01-03T08:19:48.465Z,1033.51
2019-01-03T08:20:48.426Z,1033.50
2019-01-03T08:21:48.388Z,1033.52
2019-01-03T08:22:48.350Z,1033.52
2019-01-03T08:23:48.312Z,1033.54
2019-01-03T08:24:48.274Z,1033.50
2019-01-03T08:25:48.237Z,1033.48
2019-01-03T08:26:48.199Z,1033.45
2019-01-03T08:27:48.161Z,1033.44
2019-01-03T08:28:48.122Z,1033.46
2019-01-03T08:29:48.088Z,1033.49
2019-01-03T08:30:48.045Z,1033.52
2019-01-03T08:31:48.007Z,1033.50
2019-01-03T08:32:47.975Z,1033.50
2019-01-03T08:33:47.933Z,1033.50
2019-01-03T08:34:47.896Z,1033.52
2019-01-03T08:35:47.856Z,1033.53
2019-01-03T08:36:47.820Z,1033.54
2019-01-03T08:37:47.781Z,1033.50
2019-01-03T08:38:47.744Z,1033.56
2019-01-03T08:39:47.706Z,1033.57
2019-01-03T08:40:47.669Z,1033.61
2019-01-03T08:41:47.631Z,1033.63
2019-01-03T08:42:47.592Z,1033.65
2019-01-03T08:43:47.553Z,1033.63
2019-01-03T08:44:47.516Z,1033.69
2019-01-03T08:45:47.480Z,1033.69
2019-01-03T08:46:47.442Z,1033.73
2019-01-03T08:47:47.406Z,1033.74
2019-01-03T08:48:47.367Z,1033.75
2019-01-03T08:49:47.330Z,1033.72
2019-01-03T08:50:47.291Z,1033.78
2019-01-03T08:51:47.254Z,1033.72
2019-01-03T08:52:47.216Z,1033.75
2019-01-03T08:53:47.182Z,1033.74
2019-01-03T08:54:47.141Z,1033.77
2019-01-03T08:55:47.103Z,1033.79
2019-01-03T08:56:47.065Z,1033.74
2019-01-03T08:57:47.029Z,1033.75
2019-01-03T08:58:46.994Z,1033.74
2019-01-03T08:59:46.952Z,1033.75
2019-01-03T09:00:46.917Z,1033.76
2019-01-03T09:01:46.880Z,1033.78
2019-01-03T09:02:46.847Z,1033.76
2019-01-03T09:03:46.807Z,1033.73
2019-01-03T09:04:46.772Z,1033.69
2019-01-03T09:05:46.737Z,1033.72
2019-01-03T09:06:46.699Z,1033.70
2019-01-03T09:07:46.664Z,1033.70
2019-01-03T09:08:46.641Z,1033.75
2019-01-03T09:09:46.592Z,1033.71
2019-01-03T09:10:46.559Z,1033.69
2019-01-03T09:11:46.521Z,1033.70
2019-01-03T09:12:46.487Z,1033.66
2019-01-03T09:13:46.450Z,1033.63
2019-01-03T09:14:46.417Z,1033.60
2019-01-03T09:15:46.382Z,1033.60
2019-01-03T09:16:46.348Z,1033.66
2019-01-03T09:17:46.310Z,1033.64
2019-01-03T09:18:46.276Z,1033.63
2019-01-03T09:19:46.242Z,1033.66
2019-01-03T09:20:46.213Z,1033.69
2019-01-03T09:21:46.171Z,1033.65
2019-01-03T09:22:46.138Z,1033.65
2019-01-03T09:23:46.102Z,1033.62
2019-01-03T09:24:46.067Z,1033.66
2019-01-03T09:25:46.035Z,1033.68
2019-01-03T09:26:45.998Z,1033.63
2019-01-03T09:27:45.964Z,1033.67
2019-01-03T09:28:45.929Z,1033.68
2019-01-03T09:29:45.894Z,1033.67
2019-01-03T09:30:45.861Z,1033.64
2019-01-03T09:31:45.826Z,1033.67
2019-01-03T09:32:45.790Z,1033.69
2019-01-03T09:33:45.757Z,1033.65
2019-01-03T09:34:45.722Z,1033.67
2019-01-03T09:35:45.691Z,1033.70
2019-01-03T09:36:45.654Z,1033.68
2019-01-03T09:37:45.621Z,1033.67
2019-01-03T09:38:45.627Z,1033.67
2019-01-03T09:39:45.550Z,1033.63
2019-01-03T09:40:45.516Z,1033.74
2019-01-03T09:41:45.482Z,1033.70
2019-01-03T09:42:45.448Z,1033.73
2019-01-03T09:43:45.416Z,1033.78
2019-01-03T09:44:45.427Z,1033.73
2019-01-03T09:45:45.346Z,1033.72
2019-01-03T09:46:45.311Z,1033.76
2019-01-03T09:47:45.278Z,1033.72
2019-01-03T09:48:45.243Z,1033.69
2019-01-03T09:49:45.212Z,1033.72
2019-01-03T09:50:45.178Z,1033.69
2019-01-03T09:51:45.141Z,1033.64
2019-01-03T09:52:45.105Z,1033.65
2019-01-03T09:53:45.072Z,1033.66
2019-01-03T09:54:45.039Z,1033.68
2019-01-03T09:55:45.004Z,1033.65
2019-01-03T09:56:44.971Z,1033.70
2019-01-03T09:57:44.937Z,1033.66
2019-01-03T09:58:44.903Z,1033.69
2019-01-03T09:59:44.867Z,1033.66
2019-01-03T10:00:44.835Z,1033.65
2019-01-03T10:01:44.805Z,1033.64
2019-01-03T10:02:44.765Z,1033.61
2019-01-03T10:03:44.731Z,1033.64
2019-01-03T10:04:44.697Z,1033.58
2019-01-03T10:05:44.664Z,1033.61
2019-01-03T10:06:44.630Z,1033.61
2019-01-03T10:07:44.595Z,1033.65
2019-01-03T10:08:44.560Z,1033.63
2019-01-03T10:09:44.529Z,1033.62
2019-01-03T10:10:44.493Z,1033.68
2019-01-03T10:11:44.458Z,1033.61
2019-01-03T10:12:44.425Z,1033.64
2019-01-03T10:13:44.390Z,1033.59
2019-01-03T10:14:44.358Z,1033.68
2019-01-03T10:15:44.323Z,1033.58
2019-01-03T10:16:44.289Z,1033.60
2019-01-03T10:17:44.255Z,1033.55
2019-01-03T10:18:44.224Z,1033.52
2019-01-03T10:19:44.188Z,1033.49
2019-01-03T10:20:44.154Z,1033.50
2019-01-03T10:21:44.122Z,1033.44
2019-01-03T10:22:44.088Z,1033.41
2019-01-03T10:23:44.053Z,1033.45
2019-01-03T10:24:44.019Z,1033.42
2019-01-03T10:25:43.985Z,1033.44
2019-01-03T10:26:43.952Z,1033.47
2019-01-03T10:27:43.919Z,1033.44
2019-01-03T10:28:43.885Z,1033.49
2019-01-03T10:29:43.854Z,1033.42
2019-01-03T10:30:43.818Z,1033.41
2019-01-03T10:31:43.786Z,1033.44
2019-01-03T10:32:43.751Z,1033.46
2019-01-03T10:33:43.716Z,1033.45
2019-01-03T10:34:43.683Z,1033.45
2019-01-03T10:35:43.648Z,1033.42
2019-01-03T10:36:43.614Z,1033.43
2019-01-03T10:37:43.582Z,1033.39
2019-01-03T10:38:43.547Z,1033.41
2019-01-03T10:39:43.514Z,1033.43
2019-01-03T10:40:43.479Z,1033.41
2019-01-03T10:41:43.498Z,1033.40
2019-01-03T10:42:43.414Z,1033.41
2019-01-03T10:43:43.378Z,1033.44
2019-01-03T10:44:43.346Z,1033.38
2019-01-03T10:45:43.311Z,1033.39
2019-01-03T10:46:43.277Z,1033.35
2019-01-03T10:47:43.242Z,1033.34
2019-01-03T10:48:43.210Z,1033.35
2019-01-03T10:49:43.179Z,1033.36
2019-01-03T10:50:43.142Z,1033.40
2019-01-03T10:51:43.108Z,1033.41
2019-01-03T10:52:43.073Z,1033.43
2019-01-03T10:53:43.041Z,1033.41
2019-01-03T10:54:43.013Z,1033.39
2019-01-03T10:55:42.972Z,1033.40
2019-01-03T10:56:42.938Z,1033.40
2019-01-03T10:57:42.904Z,1033.42
2019-01-03T10:58:42.871Z,1033.41
2019-01-03T10:59:42.836Z,1033.44
2019-01-03T11:00:42.803Z,1033.44
2019-01-03T11:01:42.768Z,1033.40
2019-01-03T11:02:42.741Z,1033.39
2019-01-03T11:03:42.702Z,1033.42
2019-01-03T11:04:42.667Z,1033.44
2019-01-03T11:05:42.633Z,1033.48
2019-01-03T11:06:42.599Z,1033.55
2019-01-03T11:07:42.565Z,1033.57
2019-01-03T11:08:42.530Z,1033.50
2019-01-03T11:09:42.498Z,1033.54
2019-01-03T11:10:42.463Z,1033.48
2019-01-03T11:11:42.428Z,1033.52
2019-01-03T11:12:42.395Z,1033.49
2019-01-03T11:13:42.364Z,1033.51
2019-01-03T11:14:42.326Z,1033.45
2019-01-03T11:15:42.292Z,1033.47
2019-01-03T11:16:42.258Z,1033.45
2019-01-03T11:17:42.224Z,1033.52
2019-01-03T11:18:42.190Z,1033.50
2019-01-03T11:19:42.154Z,1033.45
2019-01-03T11:20:42.121Z,1033.46
2019-01-03T11:21:42.090Z,1033.42
2019-01-03T11:22:42.054Z,1033.45
2019-01-03T11:23:42.018Z,1033.39
2019-01-03T11:24:41.984Z,1033.35
2019-01-03T11:25:41.951Z,1033.30
2019-01-03T11:26:41.917Z,1033.38
2019-01-03T11:27:41.883Z,1033.38
2019-01-03T11:28:41.848Z,1033.38
2019-01-03T11:29:41.814Z,1033.43
2019-01-03T11:30:41.781Z,1033.43
2019-01-03T11:31:41.745Z,1033.38
2019-01-03T11:32:41.712Z,1033.38
2019-01-03T11:33:41.682Z,1033.43
2019-01-03T11:34:41.644Z,1033.30
2019-01-03T11:35:41.609Z,1033.32
2019-01-03T11:36:41.575Z,1033.38
2019-01-03T11:37:41.540Z,1033.39
2019-01-03T11:38:41.506Z,1033.44
2019-01-03T11:39:41.472Z,1033.41
2019-01-03T11:40:41.438Z,1033.41
2019-01-03T11:41:41.403Z,1033.40
2019-01-03T11:42:41.369Z,1033.34
2019-01-03T11:43:41.334Z,1033.34
2019-01-03T11:44:41.306Z,1033.35
2019-01-03T11:45:41.267Z,1033.40
2019-01-03T11:46:41.233Z,1033.37
2019-01-03T11:47:41.198Z,1033.37
2019-01-03T11:48:41.164Z,1033.34
2019-01-03T11:49:41.130Z,1033.33
2019-01-03T11:50:41.095Z,1033.33
2019-01-03T11:51:41.061Z,1033.32
2019-01-03T11:52:41.027Z,1033.33
2019-01-03T11:53:40.992Z,1033.33
2019-01-03T11:54:40.958Z,1033.31
2019-01-03T11:55:40.924Z,1033.33
2019-01-03T11:56:40.890Z,1033.35
2019-01-03T11:57:40.856Z,1033.32
2019-01-03T11:58:40.821Z,1033.34
2019-01-03T11:59:40.787Z,1033.40
2019-01-03T12:00:40.753Z,1033.36
2019-01-03T12:01:40.717Z,1033.41
2019-01-03T12:02:40.683Z,1033.33
2019-01-03T12:03:40.648Z,1033.33
2019-01-03T12:04:40.614Z,1033.31